Time;durP1;ratioP1;P1;durP2;ratioP2;P2;SDS_P1;SDS_P2;PMS_P1;PMS_P2;Temp;Humidity;BMP_temperature;BMP_pressure;BME280_temperature;BME280_humidity;BME280_pressure;Samples;Min_cycle;Max_cycle;Signal;HPM_P1;HPM_P2
2023/05/17 00:00:59;;;;;;;4.47;1.57;;;;;;;13.07;49.55;101804.53;4927542;28;97493;-82
2023/05/17 00:03:24;;;;;;;4.43;1.80;;;;;;;13.05;49.73;101798.72;4910434;28;99090;-82
2023/05/17 00:05:50;;;;;;;2.97;1.93;;;;;;;13.02;49.64;101847.38;4909981;28;97424;-83
2023/05/17 00:08:15;;;;;;;2.33;1.03;;;;;;;13.01;49.47;101820.22;4915805;28;96921;-83
2023/05/17 00:10:40;;;;;;;3.40;1.73;;;;;;;12.96;49.75;101818.16;4916098;28;97259;-83
2023/05/17 00:13:06;;;;;;;1.37;1.27;;;;;;;13.09;49.97;101813.84;4917418;28;99082;-83
2023/05/17 00:15:31;;;;;;;2.80;1.40;;;;;;;13.11;50.00;101816.91;4918031;28;104070;-83
2023/05/17 00:17:56;;;;;;;5.50;2.00;;;;;;;13.13;49.86;101824.69;4913855;28;97131;-82
2023/05/17 00:20:22;;;;;;;4.73;1.80;;;;;;;13.07;50.09;101801.75;4914094;28;96932;-83
2023/05/17 00:22:47;;;;;;;1.90;1.27;;;;;;;13.12;50.08;101803.84;4918966;28;98033;-83
2023/05/17 00:25:12;;;;;;;3.73;1.93;;;;;;;13.06;50.01;101801.00;4913171;28;97696;-83
2023/05/17 00:27:38;;;;;;;3.60;1.70;;;;;;;13.10;50.12;101806.34;4913418;28;96869;-84
2023/05/17 00:30:04;;;;;;;4.30;1.67;;;;;;;13.09;50.18;101815.84;4914594;28;97390;-83
2023/05/17 00:32:29;;;;;;;11.43;2.10;;;;;;;13.07;50.10;101813.56;4915428;28;97540;-83
2023/05/17 00:34:55;;;;;;;2.90;1.43;;;;;;;13.02;50.27;101792.13;4911605;28;99011;-83
2023/05/17 00:37:20;;;;;;;6.50;2.00;;;;;;;13.00;50.27;101794.59;4922766;28;97007;-83
2023/05/17 00:39:45;;;;;;;3.17;1.13;;;;;;;12.99;50.09;101792.34;4921803;28;97693;-83
2023/05/17 00:42:11;;;;;;;6.00;1.80;;;;;;;12.97;50.47;101801.09;4954867;27;100375;-83
2023/05/17 00:44:36;;;;;;;2.20;1.30;;;;;;;12.96;50.46;101813.38;4921265;28;100525;-82
2023/05/17 00:47:02;;;;;;;6.27;1.43;;;;;;;12.97;50.45;101814.16;4936738;28;96880;-83
2023/05/17 00:49:28;;;;;;;4.53;1.57;;;;;;;12.90;50.41;101818.06;4935283;28;98125;-83
2023/05/17 00:51:54;;;;;;;1.63;1.23;;;;;;;12.86;50.47;101809.22;4916644;28;100707;-83
2023/05/17 00:54:20;;;;;;;3.47;1.70;;;;;;;12.82;50.53;101814.16;4927353;28;99978;-83
2023/05/17 00:56:47;;;;;;;6.03;1.43;;;;;;;12.77;50.53;101834.19;4918386;28;96872;-83
2023/05/17 00:59:13;;;;;;;4.07;1.57;;;;;;;12.75;50.72;101807.03;4914755;28;97393;-82
2023/05/17 01:01:42;;;;;;;3.30;1.67;;;;;;;12.73;50.82;101831.63;4923201;28;100328;-83
2023/05/17 01:04:08;;;;;;;4.53;1.57;;;;;;;12.68;50.49;101851.63;4912184;28;97822;-82
2023/05/17 01:06:34;;;;;;;4.80;1.80;;;;;;;12.60;50.55;101831.16;4931021;27;97419;-83
2023/05/17 01:09:00;;;;;;;1.20;1.10;;;;;;;12.56;50.64;101816.00;4913480;28;96877;-83
2023/05/17 01:11:38;;;;;;;3.27;1.50;;;;;;;12.52;50.82;101818.22;4914069;28;100255;-83
2023/05/17 01:14:30;;;;;;;2.50;1.57;;;;;;;12.47;51.04;101816.16;4929578;27;99325;-83
2023/05/17 01:17:01;;;;;;;3.13;1.53;;;;;;;12.45;51.30;101824.13;4909760;28;97156;-83
2023/05/17 01:20:14;;;;;;;10.13;1.63;;;;;;;12.44;52.27;101822.59;4911833;28;97024;-82
2023/05/17 01:23:17;;;;;;;3.80;1.43;;;;;;;12.45;52.49;101821.38;4926904;28;100865;-83
2023/05/17 01:25:52;;;;;;;1.57;1.10;;;;;;;12.45;51.91;101826.91;4918727;28;99142;-82
2023/05/17 01:28:21;;;;;;;2.90;1.93;;;;;;;12.45;51.28;101830.41;4912742;28;97359;-83
2023/05/17 01:30:50;;;;;;;2.00;1.80;;;;;;;12.45;51.26;101819.34;4911373;28;97258;-83
2023/05/17 01:33:16;;;;;;;3.63;1.70;;;;;;;12.44;51.20;101828.91;4909943;28;98218;-84
2023/05/17 01:35:41;;;;;;;4.23;1.67;;;;;;;12.41;51.18;101827.06;4921598;28;100513;-83
2023/05/17 01:38:07;;;;;;;3.53;1.70;;;;;;;12.37;51.38;101837.53;4908949;28;96933;-83
2023/05/17 01:40:35;;;;;;;10.07;2.10;;;;;;;12.38;51.38;101819.00;4915978;28;97438;-84
2023/05/17 01:43:10;;;;;;;6.10;1.67;;;;;;;12.40;52.12;101842.13;4911653;28;98079;-83
2023/05/17 01:45:46;;;;;;;2.20;1.20;;;;;;;12.39;52.14;101832.31;4912784;28;97325;-83
2023/05/17 01:48:22;;;;;;;2.63;1.20;;;;;;;12.39;52.14;101840.59;4909569;28;97406;-83
2023/05/17 01:50:50;;;;;;;3.73;2.03;;;;;;;12.40;51.56;101835.84;4911008;28;97617;-83
2023/05/17 01:53:22;;;;;;;2.97;1.50;;;;;;;12.39;51.89;101873.72;4918884;28;100758;-83
2023/05/17 01:55:54;;;;;;;5.17;1.50;;;;;;;12.39;52.13;101850.88;4909694;28;99805;-83
2023/05/17 01:58:21;;;;;;;1.93;1.80;;;;;;;12.34;51.74;101843.25;4913483;28;96972;-84
2023/05/17 02:00:48;;;;;;;3.37;1.50;;;;;;;12.36;51.79;101862.88;4914868;28;96676;-82
2023/05/17 02:03:20;;;;;;;3.43;1.43;;;;;;;12.33;52.35;101850.78;4911470;28;97956;-82
2023/05/17 02:05:45;;;;;;;3.70;1.50;;;;;;;12.30;51.79;101856.47;4913961;28;98883;-82
2023/05/17 02:08:11;;;;;;;7.70;1.30;;;;;;;12.28;51.88;101858.94;4924921;28;97702;-82
2023/05/17 02:10:37;;;;;;;5.17;2.00;;;;;;;12.28;51.89;101854.19;4912106;28;97127;-81
2023/05/17 02:13:02;;;;;;;3.10;1.57;;;;;;;12.23;51.91;101863.13;4929127;28;100445;-83
2023/05/17 02:15:28;;;;;;;5.30;2.10;;;;;;;12.21;52.02;101873.13;4911848;28;97070;-78
2023/05/17 02:17:53;;;;;;;2.60;1.70;;;;;;;12.19;52.00;101848.00;4912571;28;97108;-81
2023/05/17 02:20:19;;;;;;;4.10;1.53;;;;;;;12.17;51.99;101867.78;4916844;28;97406;-81
2023/05/17 02:22:45;;;;;;;3.33;1.80;;;;;;;12.15;52.10;101866.72;4916821;28;97608;-81
2023/05/17 02:25:10;;;;;;;2.83;2.33;;;;;;;12.11;52.14;101855.13;4918172;28;100165;-82
2023/05/17 02:27:35;;;;;;;9.13;1.63;;;;;;;12.11;52.12;101850.38;4909535;28;97144;-81
2023/05/17 02:30:02;;;;;;;4.77;1.50;;;;;;;12.10;52.13;101876.41;4915682;28;97256;-83
2023/05/17 02:32:28;;;;;;;4.37;1.77;;;;;;;12.09;52.26;101857.59;4909631;28;101691;-81
2023/05/17 02:34:54;;;;;;;9.03;1.87;;;;;;;12.02;52.21;101870.53;4918026;28;100354;-81
2023/05/17 02:37:19;;;;;;;3.63;1.97;;;;;;;12.02;52.23;101864.25;4914244;28;98090;-81
2023/05/17 02:39:44;;;;;;;7.00;2.00;;;;;;;11.95;52.16;101879.16;4937599;28;97226;-82
2023/05/17 02:42:10;;;;;;;3.60;1.57;;;;;;;11.87;52.31;101875.25;4910909;28;100730;-82
2023/05/17 02:44:35;;;;;;;7.10;1.90;;;;;;;11.83;52.32;101885.69;4915787;28;97759;-82
2023/05/17 02:47:00;;;;;;;2.47;1.60;;;;;;;11.81;52.51;101870.84;4913043;28;97406;-82
2023/05/17 02:49:26;;;;;;;2.27;1.57;;;;;;;11.78;52.63;101900.13;4912162;28;97297;-81
2023/05/17 02:51:51;;;;;;;4.13;2.03;;;;;;;11.80;52.48;101897.66;4914053;28;98144;-81
2023/05/17 02:54:17;;;;;;;2.97;1.33;;;;;;;11.78;52.54;101891.84;4923704;28;99189;-82
2023/05/17 02:56:42;;;;;;;3.37;2.20;;;;;;;11.75;52.59;101887.25;4912270;28;97062;-82
2023/05/17 02:59:08;;;;;;;3.30;2.00;;;;;;;11.74;52.50;101891.28;4919905;28;97179;-82
2023/05/17 03:01:33;;;;;;;5.13;2.07;;;;;;;11.76;52.47;101896.31;4909064;28;98830;-81
2023/05/17 03:03:58;;;;;;;2.63;1.90;;;;;;;11.74;52.61;101898.78;4913065;28;100680;-82
2023/05/17 03:06:24;;;;;;;3.43;1.80;;;;;;;11.60;52.57;101888.44;4940412;28;97215;-81
2023/05/17 03:08:49;;;;;;;3.87;2.00;;;;;;;11.65;52.56;101887.78;4921621;28;97273;-82
2023/05/17 03:11:14;;;;;;;3.70;1.93;;;;;;;11.64;52.81;101911.81;4912976;28;97873;-82
2023/05/17 03:13:40;;;;;;;3.83;1.70;;;;;;;11.61;52.88;101898.22;4919355;28;102158;-82
2023/05/17 03:16:05;;;;;;;8.57;2.30;;;;;;;11.59;52.94;101944.78;4917898;28;97427;-81
2023/05/17 03:18:30;;;;;;;5.97;2.10;;;;;;;11.60;53.00;101894.69;4914320;28;97427;-82
2023/05/17 03:20:56;;;;;;;4.10;1.83;;;;;;;11.66;52.91;101889.31;4911917;28;98247;-82
2023/05/17 03:23:21;;;;;;;12.03;2.40;;;;;;;11.64;52.96;101911.81;4916384;28;100328;-82
2023/05/17 03:25:46;;;;;;;8.03;2.33;;;;;;;11.63;53.10;101912.28;4911276;28;97293;-82
2023/05/17 03:28:12;;;;;;;2.03;1.80;;;;;;;11.64;52.95;101906.28;4912745;28;97280;-82
2023/05/17 03:30:37;;;;;;;3.80;1.80;;;;;;;11.63;53.04;101915.81;4913158;28;101140;-81
2023/05/17 03:33:02;;;;;;;5.13;1.80;;;;;;;11.61;53.13;101929.31;4914549;28;98711;-81
2023/05/17 03:35:28;;;;;;;5.87;2.10;;;;;;;11.63;53.17;101929.59;4907958;28;98028;-81
2023/05/17 03:37:53;;;;;;;4.20;1.70;;;;;;;11.66;53.13;101936.19;4918361;28;97590;-81
2023/05/17 03:40:18;;;;;;;5.77;1.53;;;;;;;11.64;53.50;101944.16;4910567;28;97666;-81
2023/05/17 03:42:44;;;;;;;5.53;1.67;;;;;;;11.60;53.03;101929.78;4913489;28;98889;-81
2023/05/17 03:45:10;;;;;;;5.00;2.17;;;;;;;11.61;53.25;101926.53;4912757;28;97226;-81
2023/05/17 03:47:35;;;;;;;5.37;2.23;;;;;;;11.61;53.30;101931.28;4917315;28;97085;-80
2023/05/17 03:50:00;;;;;;;5.73;2.10;;;;;;;11.60;53.31;101976.63;4926763;28;99738;-81
2023/05/17 03:52:26;;;;;;;5.73;1.83;;;;;;;11.62;53.36;101930.06;4903368;28;99452;-81
2023/05/17 03:54:51;;;;;;;3.00;1.97;;;;;;;11.66;53.34;101953.47;4909490;28;98704;-81
2023/05/17 03:57:18;;;;;;;7.07;2.00;;;;;;;11.67;53.31;101952.25;4909831;28;97779;-80
2023/05/17 03:59:43;;;;;;;7.40;2.50;;;;;;;11.70;52.99;101945.06;4913630;28;98603;-81
2023/05/17 04:02:09;;;;;;;7.73;2.07;;;;;;;11.66;53.28;101952.72;4915371;28;99835;-82
2023/05/17 04:04:34;;;;;;;5.10;1.63;;;;;;;11.64;53.37;101958.66;4913956;28;96954;-81
2023/05/17 04:07:00;;;;;;;4.80;1.90;;;;;;;11.63;53.34;101956.41;4922327;28;97157;-81
2023/05/17 04:09:25;;;;;;;6.23;1.73;;;;;;;11.64;53.43;101961.44;4918528;28;97513;-82
2023/05/17 04:11:50;;;;;;;4.73;1.73;;;;;;;11.59;53.49;101953.81;4919616;28;97269;-81
2023/05/17 04:14:17;;;;;;;5.47;1.90;;;;;;;11.55;53.54;101956.00;4917516;28;99616;-81
2023/05/17 04:16:42;;;;;;;7.53;2.23;;;;;;;11.54;53.48;102011.56;4919099;28;97355;-83
2023/05/17 04:19:08;;;;;;;6.03;1.90;;;;;;;11.59;53.45;101997.16;4916103;28;97980;-82
2023/05/17 04:21:33;;;;;;;2.50;1.50;;;;;;;11.60;53.69;101976.63;4915461;28;97276;-82
2023/05/17 04:23:58;;;;;;;5.60;1.67;;;;;;;11.61;53.41;101995.47;4914215;28;97397;-82
2023/05/17 04:26:25;;;;;;;9.87;2.33;;;;;;;11.61;53.51;101989.19;4917590;28;97342;-82
2023/05/17 04:28:51;;;;;;;10.23;2.00;;;;;;;11.56;53.48;101998.06;4913201;28;98905;-83
2023/05/17 04:31:16;;;;;;;6.33;2.23;;;;;;;11.57;53.54;101988.59;4926446;28;100125;-83
2023/05/17 04:33:42;;;;;;;9.27;1.87;;;;;;;11.56;53.44;102007.13;4916382;28;96776;-81
2023/05/17 04:36:07;;;;;;;5.37;1.53;;;;;;;11.60;53.60;101996.69;4912623;28;97439;-81
2023/05/17 04:38:33;;;;;;;5.53;2.37;;;;;;;11.59;53.69;102000.69;4911355;28;99669;-82
2023/05/17 04:41:05;;;;;;;4.10;1.43;;;;;;;11.62;53.92;102019.03;4923171;28;100341;-82
2023/05/17 04:43:31;;;;;;;8.23;1.77;;;;;;;11.69;53.55;102017.94;4921084;28;97241;-82
2023/05/17 04:45:57;;;;;;;5.73;1.87;;;;;;;11.70;53.63;102023.03;4915459;28;97419;-82
2023/05/17 04:48:24;;;;;;;5.47;1.60;;;;;;;11.76;53.89;102018.38;4915456;28;99454;-82
2023/05/17 04:50:49;;;;;;;5.17;1.60;;;;;;;11.84;53.81;102016.03;4918441;28;99466;-83
2023/05/17 04:53:15;;;;;;;3.20;1.53;;;;;;;11.94;53.84;102023.06;4910715;28;96843;-82
2023/05/17 04:55:41;;;;;;;4.70;1.63;;;;;;;11.98;53.71;102029.91;4912358;28;97229;-81
2023/05/17 04:58:08;;;;;;;4.93;1.67;;;;;;;12.03;53.60;102045.81;4912720;28;98169;-82
2023/05/17 05:00:33;;;;;;;8.40;1.60;;;;;;;12.06;53.60;102035.84;4916580;28;100675;-81
2023/05/17 05:02:59;;;;;;;7.80;1.83;;;;;;;12.07;53.47;102031.88;4930702;28;97455;-82
2023/05/17 05:05:25;;;;;;;4.70;1.87;;;;;;;12.11;53.80;102040.72;4912946;28;97090;-82
2023/05/17 05:07:51;;;;;;;13.57;2.60;;;;;;;12.11;53.54;102042.72;4914828;28;99460;-82
2023/05/17 05:10:16;;;;;;;10.23;1.60;;;;;;;12.14;53.52;102058.34;4912627;28;97405;-83
2023/05/17 05:12:41;;;;;;;5.10;1.63;;;;;;;12.16;53.55;102051.13;4916746;28;97173;-82
2023/05/17 05:15:07;;;;;;;5.60;1.30;;;;;;;12.23;53.45;102041.72;4915990;28;97216;-82
2023/05/17 05:17:37;;;;;;;8.40;2.37;;;;;;;12.20;53.57;102046.19;4928905;28;101172;-82
2023/05/17 05:20:03;;;;;;;8.93;1.60;;;;;;;12.21;53.46;102094.59;4913466;28;99346;-83
2023/05/17 05:22:28;;;;;;;3.13;1.60;;;;;;;12.22;53.51;102065.78;4912260;28;97086;-82
2023/05/17 05:24:54;;;;;;;8.37;1.80;;;;;;;12.23;53.44;102061.06;4913295;28;97418;-81
2023/05/17 05:27:19;;;;;;;6.53;1.50;;;;;;;12.23;53.49;102061.06;4919468;28;99495;-83
2023/05/17 05:29:45;;;;;;;5.57;1.80;;;;;;;12.27;53.34;102067.91;4910938;28;97661;-83
2023/05/17 05:32:10;;;;;;;5.60;1.20;;;;;;;12.25;53.42;102081.44;4912304;28;96599;-83
2023/05/17 05:34:37;;;;;;;4.27;1.77;;;;;;;12.27;53.46;102080.94;4911637;28;97407;-82
2023/05/17 05:37:02;;;;;;;8.03;1.90;;;;;;;12.33;53.35;102081.81;4918037;28;100766;-83
2023/05/17 05:39:28;;;;;;;5.13;1.40;;;;;;;12.39;53.36;102075.19;4941296;28;99364;-83
2023/05/17 05:41:53;;;;;;;7.90;1.60;;;;;;;12.42;53.25;102082.53;4925527;28;96939;-83
2023/05/17 05:44:18;;;;;;;4.50;1.77;;;;;;;12.41;53.00;102089.28;4914650;28;97210;-83
2023/05/17 05:46:44;;;;;;;5.27;1.93;;;;;;;12.45;52.92;102102.94;4910374;28;98503;-82
2023/05/17 05:49:09;;;;;;;5.77;1.20;;;;;;;12.45;53.00;102078.81;4909483;28;97175;-82
2023/05/17 05:51:35;;;;;;;4.93;0.90;;;;;;;12.53;53.02;102088.28;4920666;28;98088;-84
2023/05/17 05:54:00;;;;;;;6.63;1.70;;;;;;;12.59;52.87;102080.13;4912146;28;97291;-82
2023/05/17 05:56:26;;;;;;;4.47;0.93;;;;;;;12.73;52.82;102098.75;4913974;28;100568;-83
2023/05/17 05:58:53;;;;;;;3.00;1.07;;;;;;;12.72;52.45;102109.00;4912361;28;100462;-83
2023/05/17 06:01:18;;;;;;;3.43;1.00;;;;;;;12.77;52.26;102110.38;4912531;28;96548;-83
2023/05/17 06:03:44;;;;;;;7.63;1.03;;;;;;;12.82;52.15;102106.19;4930757;27;99151;-82
2023/05/17 06:06:10;;;;;;;4.70;1.20;;;;;;;12.92;52.11;102113.16;4917569;28;99529;-82
2023/05/17 06:08:35;;;;;;;6.13;1.67;;;;;;;12.98;51.88;102112.03;4917920;28;100036;-82
2023/05/17 06:11:00;;;;;;;7.07;1.00;;;;;;;13.03;51.68;102127.94;4921246;28;97689;-83
2023/05/17 06:13:26;;;;;;;1.43;1.00;;;;;;;13.07;51.31;102123.03;4918449;28;97725;-83
2023/05/17 06:15:51;;;;;;;2.70;1.10;;;;;;;13.23;50.98;102121.81;4911468;28;99356;-83
2023/05/17 06:18:16;;;;;;;4.77;1.83;;;;;;;13.15;50.71;102178.72;4914653;28;99398;-83
2023/05/17 06:20:42;;;;;;;3.27;1.17;;;;;;;13.25;50.60;102139.47;4912968;28;97239;-84
2023/05/17 06:23:07;;;;;;;3.80;1.33;;;;;;;13.37;50.36;102145.94;4919276;28;97029;-82
2023/05/17 06:25:33;;;;;;;6.97;1.40;;;;;;;13.44;50.20;102162.94;4911399;28;99323;-83
2023/05/17 06:28:01;;;;;;;9.83;1.57;;;;;;;13.48;49.84;102151.66;4918773;28;98262;-83
2023/05/17 06:30:26;;;;;;;2.80;1.23;;;;;;;13.51;49.81;102153.50;4914406;28;97011;-83
2023/05/17 06:32:52;;;;;;;4.67;1.10;;;;;;;13.52;49.69;102139.19;4911384;28;97400;-82
2023/05/17 06:35:17;;;;;;;3.37;1.00;;;;;;;13.62;49.75;102150.16;4919577;28;99410;-84
2023/05/17 06:37:42;;;;;;;6.00;1.00;;;;;;;13.66;49.45;102159.03;4911937;28;97084;-83
2023/05/17 06:40:09;;;;;;;3.57;1.33;;;;;;;13.66;49.38;102159.03;4911577;28;97451;-83
2023/05/17 06:42:34;;;;;;;3.93;1.20;;;;;;;13.67;49.03;102146.72;4916183;28;97540;-83
2023/05/17 06:45:00;;;;;;;5.50;1.60;;;;;;;13.74;49.00;102154.66;4921222;28;99649;-82
2023/05/17 06:47:25;;;;;;;4.07;1.20;;;;;;;13.85;49.01;102168.66;4908208;28;98421;-83
2023/05/17 06:49:51;;;;;;;3.77;1.40;;;;;;;13.93;48.86;102148.44;4918752;28;97181;-83
2023/05/17 06:52:16;;;;;;;2.00;1.07;;;;;;;13.87;48.74;102150.31;4913495;28;96691;-82
2023/05/17 06:54:42;;;;;;;3.63;1.30;;;;;;;13.88;48.49;102160.16;4912009;28;99130;-84
2023/05/17 06:57:08;;;;;;;9.13;1.60;;;;;;;13.83;48.32;102168.34;4922049;28;99176;-82
2023/05/17 06:59:34;;;;;;;5.83;1.27;;;;;;;13.85;48.25;102177.72;4921843;28;97592;-82
2023/05/17 07:02:00;;;;;;;10.37;1.50;;;;;;;13.90;47.80;102181.81;4913519;28;96879;-82
2023/05/17 07:04:25;;;;;;;5.80;1.23;;;;;;;14.02;47.68;102189.06;4916320;28;98304;-84
2023/05/17 07:06:51;;;;;;;7.90;1.43;;;;;;;14.00;47.47;102174.94;4916560;28;97538;-83
2023/05/17 07:09:17;;;;;;;9.33;1.90;;;;;;;14.04;47.23;102176.25;4916244;28;96993;-85
2023/05/17 07:11:43;;;;;;;3.50;1.13;;;;;;;14.04;47.15;102192.88;4926076;28;97080;-84
2023/05/17 07:14:08;;;;;;;2.90;1.13;;;;;;;14.05;47.22;102179.78;4917716;28;96795;-82
2023/05/17 07:16:33;;;;;;;4.93;1.43;;;;;;;14.09;47.35;102206.03;4919538;28;100235;-83
2023/05/17 07:18:59;;;;;;;7.53;1.60;;;;;;;14.19;47.54;102188.09;4916861;28;97379;-83
2023/05/17 07:21:24;;;;;;;4.23;1.40;;;;;;;14.22;47.32;102205.72;4938771;28;96861;-82
2023/05/17 07:23:50;;;;;;;7.40;1.40;;;;;;;14.20;47.38;102216.53;4914384;28;98570;-83
2023/05/17 07:26:18;;;;;;;3.00;1.20;;;;;;;14.25;47.16;102204.78;4913538;28;99301;-83
2023/05/17 07:28:43;;;;;;;3.20;1.40;;;;;;;14.17;47.14;102206.41;4915117;28;97217;-83
2023/05/17 07:31:09;;;;;;;3.47;1.00;;;;;;;14.26;47.36;102218.13;4917592;28;97333;-82
2023/05/17 07:33:36;;;;;;;3.33;1.43;;;;;;;14.32;47.33;102204.41;4911124;28;98075;-83
2023/05/17 07:36:02;;;;;;;5.80;1.23;;;;;;;14.32;47.10;102217.50;4914575;28;98254;-84
2023/05/17 07:38:27;;;;;;;7.70;1.40;;;;;;;14.30;47.11;102261.50;4918539;28;97973;-83
2023/05/17 07:40:53;;;;;;;2.77;1.03;;;;;;;14.45;47.14;102220.72;4911746;28;97447;-83
2023/05/17 07:43:18;;;;;;;2.70;0.93;;;;;;;14.58;46.65;102227.47;4917661;28;99752;-83
2023/05/17 07:45:43;;;;;;;3.80;1.00;;;;;;;14.61;46.57;102222.97;4917832;28;101608;-83
2023/05/17 07:48:09;;;;;;;3.00;1.07;;;;;;;14.59;46.60;102231.75;4910492;28;97469;-82
2023/05/17 07:50:34;;;;;;;2.77;1.50;;;;;;;14.63;46.67;102237.88;4909030;28;97201;-83
2023/05/17 07:53:00;;;;;;;4.20;1.23;;;;;;;14.68;46.67;102242.72;4917932;28;99148;-82
2023/05/17 07:55:25;;;;;;;3.77;1.20;;;;;;;14.70;46.57;102248.53;4915108;28;98011;-82
2023/05/17 07:57:51;;;;;;;2.70;1.10;;;;;;;14.72;46.30;102261.91;4912470;28;97294;-82
2023/05/17 08:00:18;;;;;;;2.60;1.10;;;;;;;14.78;46.24;102257.22;4912001;28;97078;-82
2023/05/17 08:02:43;;;;;;;7.70;1.73;;;;;;;14.80;46.02;102249.94;4917419;28;100385;-83
2023/05/17 08:05:09;;;;;;;4.37;0.90;;;;;;;14.73;45.93;102252.34;4918768;28;100627;-83
2023/05/17 08:07:35;;;;;;;2.53;1.13;;;;;;;14.72;46.24;102257.13;4912889;28;96715;-82
2023/05/17 08:10:00;;;;;;;5.60;1.60;;;;;;;14.73;45.65;102260.66;4917026;28;96673;-82
2023/05/17 08:12:25;;;;;;;5.10;1.77;;;;;;;14.80;45.70;102260.25;4927220;28;100659;-83
2023/05/17 08:14:51;;;;;;;3.50;1.40;;;;;;;14.84;45.09;102252.50;4915825;28;97889;-83
2023/05/17 08:17:16;;;;;;;4.50;1.37;;;;;;;14.92;44.82;102270.25;4913793;28;97083;-83
2023/05/17 08:19:41;;;;;;;4.53;1.50;;;;;;;15.13;45.00;102263.50;4915989;28;97038;-83
2023/05/17 08:22:08;;;;;;;5.23;1.73;;;;;;;15.20;44.53;102265.81;4909981;28;97697;-83
2023/05/17 08:24:33;;;;;;;4.73;1.57;;;;;;;15.20;44.38;102285.25;4911764;28;97110;-83
2023/05/17 08:26:59;;;;;;;6.67;1.33;;;;;;;15.27;44.07;102284.84;4921514;28;97414;-83
2023/05/17 08:29:24;;;;;;;3.60;1.13;;;;;;;15.37;43.97;102293.78;4930597;28;97109;-83
2023/05/17 08:31:51;;;;;;;4.20;1.60;;;;;;;15.43;43.60;102283.50;4940897;28;99027;-83
2023/05/17 08:34:16;;;;;;;6.00;1.40;;;;;;;15.43;43.67;102300.16;4920417;28;97746;-83
2023/05/17 08:36:43;;;;;;;2.50;0.97;;;;;;;15.38;43.68;102293.28;4939957;28;97062;-83
2023/05/17 08:39:08;;;;;;;5.23;1.50;;;;;;;15.10;43.17;102308.03;4928097;28;97763;-83
2023/05/17 08:41:34;;;;;;;3.33;1.23;;;;;;;14.97;43.77;102294.50;4937561;28;97927;-83
2023/05/17 08:44:02;;;;;;;5.13;1.60;;;;;;;15.18;43.75;102289.75;4918817;28;97910;-84
2023/05/17 08:46:30;;;;;;;3.57;1.20;;;;;;;15.41;43.48;102291.56;4915353;28;97207;-83
2023/05/17 08:48:58;;;;;;;4.10;1.10;;;;;;;15.78;43.19;102286.97;4917237;28;97185;-83
2023/05/17 08:51:25;;;;;;;4.70;1.30;;;;;;;15.95;42.66;102287.13;4917571;28;97277;-82
2023/05/17 08:53:51;;;;;;;2.67;0.90;;;;;;;15.89;42.12;102283.53;4937255;27;98950;-83
2023/05/17 08:56:19;;;;;;;4.40;1.17;;;;;;;15.98;42.44;102286.94;4918463;28;96794;-82
2023/05/17 08:58:47;;;;;;;4.93;1.13;;;;;;;16.03;42.54;102288.22;4936650;27;97302;-83
2023/05/17 09:01:13;;;;;;;8.23;1.40;;;;;;;16.07;42.30;102300.66;4944729;28;97685;-83
2023/05/17 09:03:40;;;;;;;4.70;1.47;;;;;;;15.99;42.11;102305.09;4947227;27;98633;-84
2023/05/17 09:06:06;;;;;;;4.17;1.30;;;;;;;16.01;41.97;102304.63;4943455;28;96379;-83
2023/05/17 09:08:31;;;;;;;3.97;1.17;;;;;;;16.04;41.90;102290.50;4939852;28;97211;-84
2023/05/17 09:10:58;;;;;;;5.17;1.60;;;;;;;15.94;41.42;102310.59;4943565;28;97339;-83
2023/05/17 09:13:24;;;;;;;4.40;1.03;;;;;;;15.85;42.04;102310.75;4926729;28;99225;-82
2023/05/17 09:15:49;;;;;;;4.60;1.30;;;;;;;15.91;41.98;102317.91;4922283;28;97055;-83
2023/05/17 09:18:17;;;;;;;4.33;1.30;;;;;;;15.96;41.75;102321.97;4919404;28;97060;-83
2023/05/17 09:20:50;;;;;;;2.03;0.90;;;;;;;16.01;40.58;102305.38;4923630;28;100045;-82
2023/05/17 09:23:19;;;;;;;4.40;1.27;;;;;;;16.03;41.37;102302.13;4941751;28;99754;-83
2023/05/17 09:25:49;;;;;;;4.50;1.00;;;;;;;16.16;40.95;102310.81;4920367;28;96847;-85
2023/05/17 09:28:18;;;;;;;6.27;1.57;;;;;;;16.29;41.38;102311.19;4922393;28;97552;-83
2023/05/17 09:30:43;;;;;;;6.70;1.53;;;;;;;16.41;41.43;102310.78;4926585;28;98575;-83
2023/05/17 09:33:10;;;;;;;3.60;1.03;;;;;;;16.44;40.93;102332.03;4919029;28;101364;-84
2023/05/17 09:35:36;;;;;;;1.97;0.87;;;;;;;16.38;41.32;102317.31;4916082;28;97157;-83
2023/05/17 09:38:10;;;;;;;4.40;1.50;;;;;;;16.46;40.01;102306.53;4914066;28;97405;-83
2023/05/17 09:40:46;;;;;;;2.87;1.10;;;;;;;16.60;40.87;102302.13;4928264;27;99590;-83
2023/05/17 09:43:21;;;;;;;4.20;1.27;;;;;;;16.92;41.08;102296.03;4916059;28;97396;-83
2023/05/17 09:45:57;;;;;;;3.43;1.00;;;;;;;17.19;39.65;102298.19;4924294;28;97069;-83
2023/05/17 09:48:24;;;;;;;3.13;0.90;;;;;;;17.16;39.89;102313.09;4922715;28;97250;-84
2023/05/17 09:50:51;;;;;;;6.23;1.37;;;;;;;17.11;40.19;102308.25;4929300;28;99749;-84
2023/05/17 09:53:30;;;;;;;4.20;1.20;;;;;;;17.34;39.03;102297.25;4914880;28;100126;-83
2023/05/17 09:56:01;;;;;;;2.07;0.97;;;;;;;17.63;39.84;102289.28;4914609;28;97198;-84
2023/05/17 09:58:30;;;;;;;2.80;1.13;;;;;;;17.77;39.31;102307.81;4913915;28;96848;-84
2023/05/17 10:00:59;;;;;;;2.90;0.97;;;;;;;17.74;38.74;102303.22;4920605;28;97754;-84
2023/05/17 10:03:31;;;;;;;3.40;1.10;;;;;;;17.61;37.21;102297.38;4920188;28;100915;-83
2023/05/17 10:05:59;;;;;;;3.93;1.47;;;;;;;17.41;39.15;102297.50;4913142;28;97614;-83
2023/05/17 10:08:26;;;;;;;3.40;1.37;;;;;;;17.29;39.84;102312.66;4935683;28;98670;-83
2023/05/17 10:10:59;;;;;;;4.20;1.40;;;;;;;17.23;39.56;102311.88;4917814;28;98181;-83
2023/05/17 10:13:29;;;;;;;4.67;1.30;;;;;;;17.19;40.15;102297.41;4912745;28;97086;-83
2023/05/17 10:15:54;;;;;;;5.00;1.30;;;;;;;17.26;39.90;102319.19;4913898;28;96799;-83
2023/05/17 10:18:21;;;;;;;1.93;1.10;;;;;;;17.33;39.85;102312.41;4929874;28;100165;-83
2023/05/17 10:20:47;;;;;;;2.37;1.13;;;;;;;17.46;39.81;102326.63;4911663;28;98107;-83
2023/05/17 10:23:14;;;;;;;3.20;1.40;;;;;;;17.48;39.43;102304.63;4910664;28;100476;-83
2023/05/17 10:25:40;;;;;;;3.80;0.90;;;;;;;17.64;39.45;102324.22;4917259;28;97592;-83
2023/05/17 10:28:06;;;;;;;3.90;1.30;;;;;;;17.68;39.06;102302.47;4917357;28;97533;-83
2023/05/17 10:30:33;;;;;;;3.47;1.00;;;;;;;17.46;39.22;102316.25;4911634;28;99218;-82
2023/05/17 10:32:59;;;;;;;7.23;1.27;;;;;;;17.38;39.08;102308.91;4917469;28;100310;-83
2023/05/17 10:35:26;;;;;;;3.77;1.37;;;;;;;17.30;39.17;102325.28;4911719;28;97108;-83
2023/05/17 10:37:52;;;;;;;3.90;0.93;;;;;;;17.34;39.55;102322.28;4912485;28;97137;-84
2023/05/17 10:40:18;;;;;;;2.93;1.00;;;;;;;17.35;39.25;102316.22;4911154;28;97962;-83
2023/05/17 10:42:52;;;;;;;2.93;1.00;;;;;;;17.37;39.07;102324.06;4914486;28;100912;-83
2023/05/17 10:45:23;;;;;;;2.60;0.93;;;;;;;17.28;38.71;102310.38;4910263;28;96548;-83
2023/05/17 10:47:51;;;;;;;1.63;0.80;;;;;;;17.21;38.87;102315.13;4923552;28;97173;-83
2023/05/17 10:50:24;;;;;;;3.27;1.30;;;;;;;17.10;38.06;102325.47;4906370;28;100503;-82
2023/05/17 10:52:50;;;;;;;3.57;1.30;;;;;;;17.27;38.75;102314.41;4914061;28;100076;-83
2023/05/17 10:55:24;;;;;;;0.97;0.87;;;;;;;17.60;37.44;102300.66;4908832;28;97425;-83
2023/05/17 10:58:08;;;;;;;1.30;0.60;;;;;;;17.72;34.83;102299.41;4908968;28;97476;-83
2023/05/17 11:00:39;;;;;;;1.33;0.87;;;;;;;17.72;37.35;102293.84;4910314;28;97927;-83
2023/05/17 11:03:33;;;;;;;1.93;0.90;;;;;;;17.79;37.28;102288.56;4917328;28;100619;-83
2023/05/17 11:06:21;;;;;;;1.77;1.10;;;;;;;18.12;37.05;102295.44;4909089;28;97143;-83
2023/05/17 11:09:07;;;;;;;5.17;1.20;;;;;;;18.23;36.95;102301.03;4926541;28;96936;-84
2023/05/17 11:11:33;;;;;;;2.30;0.93;;;;;;;18.23;37.80;102306.59;4940848;28;100822;-84
2023/05/17 11:14:02;;;;;;;3.07;1.00;;;;;;;18.12;37.21;102299.00;4912053;28;97302;-83
2023/05/17 11:16:35;;;;;;;1.33;0.80;;;;;;;18.16;37.05;102293.16;4911704;28;97283;-82
2023/05/17 11:19:10;;;;;;;1.80;1.00;;;;;;;18.27;37.10;102301.53;4910533;28;97256;-84
2023/05/17 11:21:45;;;;;;;2.77;1.00;;;;;;;18.22;34.88;102297.47;4911305;28;97507;-83
2023/05/17 11:24:15;;;;;;;4.53;1.23;;;;;;;17.91;37.38;102306.81;4910192;28;100363;-84